createdAt,value
2023-02-27T00:00:20.939Z,101975.20
2023-02-27T00:01:52.709Z,101977.40
2023-02-27T00:03:24.962Z,101976.00
2023-02-27T00:04:58.109Z,101977.60
2023-02-27T00:06:29.996Z,101979.20
2023-02-27T00:08:01.937Z,101981.00
2023-02-27T00:09:33.967Z,101977.80
2023-02-27T00:11:05.910Z,101982.40
2023-02-27T00:12:39.141Z,101979.80
2023-02-27T00:14:11.016Z,101972.80
2023-02-27T00:15:47.430Z,101975.00
2023-02-27T00:17:19.463Z,101973.60
2023-02-27T00:18:51.254Z,101976.80
2023-02-27T00:20:23.164Z,101972.40
2023-02-27T00:21:55.039Z,101975.00
2023-02-27T00:23:28.035Z,101974.60
2023-02-27T00:24:59.984Z,101977.20
2023-02-27T00:26:32.024Z,101970.60
2023-02-27T00:28:05.447Z,101970.60
2023-02-27T00:29:37.288Z,101972.60
2023-02-27T00:31:09.382Z,101971.20
2023-02-27T00:32:42.502Z,101969.00
2023-02-27T00:34:15.783Z,101971.80
2023-02-27T00:36:02.555Z,101970.20
2023-02-27T00:37:34.954Z,101965.00
2023-02-27T00:39:07.742Z,101967.40
2023-02-27T00:40:39.869Z,101968.20
2023-02-27T00:42:11.790Z,101966.40
2023-02-27T00:43:43.666Z,101972.40
2023-02-27T00:45:16.800Z,101971.60
2023-02-27T00:46:48.649Z,101968.00
2023-02-27T00:48:20.916Z,101965.20
2023-02-27T00:49:52.811Z,101969.60
2023-02-27T00:51:24.975Z,101966.20
2023-02-27T00:52:57.204Z,101968.40
2023-02-27T00:54:29.300Z,101961.00
2023-02-27T00:56:01.334Z,101965.80
2023-02-27T00:57:33.546Z,101965.20
2023-02-27T00:59:05.484Z,101968.20
2023-02-27T01:00:39.663Z,101969.00
2023-02-27T01:02:17.163Z,101969.40
2023-02-27T01:03:49.070Z,101971.60
2023-02-27T01:05:22.159Z,101969.60
2023-02-27T01:06:54.013Z,101965.80
2023-02-27T01:08:25.895Z,101965.80
2023-02-27T01:09:58.613Z,101965.40
2023-02-27T01:11:30.499Z,101965.80
2023-02-27T01:13:04.437Z,101968.60
2023-02-27T01:14:39.005Z,101965.20
2023-02-27T01:16:11.744Z,101968.40
2023-02-27T01:17:44.498Z,101967.40
2023-02-27T01:19:16.931Z,101965.40
2023-02-27T01:20:54.689Z,101969.60
2023-02-27T01:22:27.114Z,101965.20
2023-02-27T01:23:59.025Z,101959.80
2023-02-27T01:25:30.875Z,101962.80
2023-02-27T01:27:02.703Z,101961.20
2023-02-27T01:28:34.485Z,101961.00
2023-02-27T01:30:07.174Z,101962.20
2023-02-27T01:31:40.197Z,101959.40
2023-02-27T01:33:12.091Z,101959.60
2023-02-27T01:34:45.191Z,101972.80
2023-02-27T01:36:17.144Z,101963.40
2023-02-27T01:37:48.954Z,101975.60
2023-02-27T01:39:20.723Z,101966.40
2023-02-27T01:40:54.398Z,101972.20
2023-02-27T01:42:28.938Z,101969.60
2023-02-27T01:44:09.624Z,101967.40
2023-02-27T01:45:49.192Z,101968.40
2023-02-27T01:47:21.139Z,101966.00
2023-02-27T01:48:59.708Z,101966.40
2023-02-27T01:50:32.069Z,101964.20
2023-02-27T01:52:11.058Z,101968.20
2023-02-27T01:53:48.422Z,101970.80
2023-02-27T01:55:20.818Z,101969.00
2023-02-27T01:56:52.864Z,101963.60
2023-02-27T01:58:26.979Z,101962.80
2023-02-27T01:59:59.337Z,101965.60
2023-02-27T02:01:34.766Z,101960.80
2023-02-27T02:03:21.562Z,101961.40
2023-02-27T02:04:55.408Z,101961.40
2023-02-27T02:06:31.913Z,101958.40
2023-02-27T02:08:05.507Z,101960.20
2023-02-27T02:09:46.739Z,101962.40
2023-02-27T02:11:20.782Z,101961.00
2023-02-27T02:12:53.704Z,101966.00
2023-02-27T02:14:25.554Z,101964.40
2023-02-27T02:16:28.871Z,101966.20
2023-02-27T02:18:31.320Z,101964.60
2023-02-27T02:20:24.880Z,101969.80
2023-02-27T02:22:27.521Z,101965.20
2023-02-27T02:24:17.423Z,101972.40
2023-02-27T02:26:29.210Z,101965.20
2023-02-27T02:28:16.229Z,101964.80
2023-02-27T02:30:40.818Z,101965.60
2023-02-27T02:32:52.973Z,101960.00
2023-02-27T02:35:21.205Z,101962.40
2023-02-27T02:37:41.339Z,101962.00
2023-02-27T02:39:53.313Z,101966.80
2023-02-27T02:41:57.052Z,101967.20
2023-02-27T02:43:49.382Z,101973.20
2023-02-27T02:46:04.456Z,101970.40
2023-02-27T02:48:21.468Z,101977.20
2023-02-27T02:50:19.367Z,101978.00
2023-02-27T02:52:13.630Z,101976.60
2023-02-27T02:54:16.540Z,101980.60
2023-02-27T02:56:17.345Z,101983.40
2023-02-27T02:58:27.826Z,101982.60
2023-02-27T03:00:38.305Z,101983.40
2023-02-27T03:02:18.649Z,101986.40
2023-02-27T03:04:14.242Z,101985.40
2023-02-27T03:06:06.451Z,101983.80
2023-02-27T03:07:46.311Z,101987.40
2023-02-27T03:09:45.715Z,101987.20
2023-02-27T03:11:18.398Z,101988.40
2023-02-27T03:13:03.662Z,101988.00
2023-02-27T03:14:58.860Z,101984.40
2023-02-27T03:16:50.563Z,101984.40
2023-02-27T03:18:34.619Z,101984.80
2023-02-27T03:20:15.567Z,101982.00
2023-02-27T03:22:02.195Z,101984.80
2023-02-27T03:23:43.006Z,101976.20
2023-02-27T03:25:19.904Z,101979.00
2023-02-27T03:27:02.811Z,101973.20
2023-02-27T03:28:43.299Z,101973.80
2023-02-27T03:30:41.542Z,101975.40
2023-02-27T03:32:50.135Z,101967.80
2023-02-27T03:34:30.305Z,101975.40
2023-02-27T03:36:17.828Z,101978.20
2023-02-27T03:38:12.699Z,101976.20
2023-02-27T03:40:00.257Z,101978.20
2023-02-27T03:41:50.030Z,101979.80
2023-02-27T03:44:19.685Z,101984.80
2023-02-27T03:46:17.550Z,101978.80
2023-02-27T03:47:49.819Z,101976.00
2023-02-27T03:49:21.996Z,101979.00
2023-02-27T03:50:54.414Z,101979.60
2023-02-27T03:52:29.795Z,101975.80
2023-02-27T03:54:38.692Z,101976.60
2023-02-27T03:56:16.536Z,101978.00
2023-02-27T03:57:51.005Z,101973.60
2023-02-27T03:59:26.874Z,101975.60
2023-02-27T04:00:59.537Z,101969.20
2023-02-27T04:02:33.257Z,101975.60
2023-02-27T04:04:12.550Z,101970.60
2023-02-27T04:06:23.441Z,101973.20
2023-02-27T04:08:19.182Z,101975.40
2023-02-27T04:10:09.321Z,101977.80
2023-02-27T04:12:08.942Z,101987.00
2023-02-27T04:14:08.028Z,101984.60
2023-02-27T04:15:48.597Z,101985.60
2023-02-27T04:17:29.762Z,101987.40
2023-02-27T04:19:18.000Z,101990.40
2023-02-27T04:21:01.093Z,101990.00
2023-02-27T04:22:39.494Z,101983.80
2023-02-27T04:24:46.023Z,101988.20
2023-02-27T04:26:40.211Z,101989.20
2023-02-27T04:28:17.895Z,101993.80
2023-02-27T04:30:15.011Z,101988.60
2023-02-27T04:32:09.953Z,101989.60
2023-02-27T04:34:24.073Z,101991.20
2023-02-27T04:36:28.992Z,101999.20
2023-02-27T04:38:33.731Z,102001.20
2023-02-27T04:40:36.307Z,102008.40
2023-02-27T04:42:24.198Z,102007.80
2023-02-27T04:43:58.277Z,102010.40
2023-02-27T04:45:36.158Z,102010.20
2023-02-27T04:47:13.169Z,102013.80
2023-02-27T04:49:15.536Z,102012.80
2023-02-27T04:51:14.729Z,102015.00
2023-02-27T04:52:58.001Z,102016.40
2023-02-27T04:54:41.883Z,102012.00
2023-02-27T04:56:22.618Z,102018.00
2023-02-27T04:58:15.564Z,102016.80
2023-02-27T04:59:55.715Z,102022.60
2023-02-27T05:01:47.629Z,102025.60
2023-02-27T05:03:30.990Z,102021.00
2023-02-27T05:05:13.716Z,102023.20
2023-02-27T05:06:49.431Z,102026.00
2023-02-27T05:08:34.701Z,102022.00
2023-02-27T05:10:15.474Z,102023.40
2023-02-27T05:12:00.228Z,102026.80
2023-02-27T05:13:42.572Z,102023.00
2023-02-27T05:15:24.367Z,102024.40
2023-02-27T05:17:48.423Z,102024.00
2023-02-27T05:19:21.610Z,102025.60
2023-02-27T05:21:13.843Z,102034.20
2023-02-27T05:22:59.000Z,102037.80
2023-02-27T05:24:52.603Z,102034.40
2023-02-27T05:26:58.267Z,102037.00
2023-02-27T05:28:52.139Z,102036.80
2023-02-27T05:30:38.915Z,102028.80
2023-02-27T05:32:22.913Z,102034.40
2023-02-27T05:34:16.883Z,102040.40
2023-02-27T05:36:07.746Z,102041.20
2023-02-27T05:37:48.571Z,102045.40
2023-02-27T05:39:25.665Z,102042.00
2023-02-27T05:41:13.569Z,102040.40
2023-02-27T05:43:06.714Z,102046.00
2023-02-27T05:44:47.763Z,102042.00
2023-02-27T05:46:30.923Z,102035.20
2023-02-27T05:48:21.163Z,102036.60
2023-02-27T05:50:12.826Z,102043.20
2023-02-27T05:51:50.741Z,102042.80
2023-02-27T05:53:35.231Z,102043.60
2023-02-27T05:55:18.428Z,102049.00
2023-02-27T05:56:58.032Z,102053.20
2023-02-27T05:58:32.769Z,102056.60
2023-02-27T06:00:17.518Z,102062.20
2023-02-27T06:01:53.288Z,102063.40
2023-02-27T06:03:31.938Z,102066.80
2023-02-27T06:05:04.816Z,102072.80
2023-02-27T06:06:37.598Z,102069.00
2023-02-27T06:08:11.427Z,102073.60
2023-02-27T06:09:45.078Z,102079.40
2023-02-27T06:11:18.491Z,102078.40
2023-02-27T06:12:53.575Z,102077.20
2023-02-27T06:14:25.654Z,102086.20
2023-02-27T06:15:58.799Z,102085.40
2023-02-27T06:17:30.621Z,102090.60
2023-02-27T06:19:05.123Z,102085.60
2023-02-27T06:20:37.170Z,102088.20
2023-02-27T06:22:11.261Z,102091.00
2023-02-27T06:23:43.084Z,102092.60
2023-02-27T06:25:15.595Z,102100.00
2023-02-27T06:26:47.986Z,102099.00
2023-02-27T06:28:19.843Z,102104.20
2023-02-27T06:29:52.705Z,102100.80
2023-02-27T06:31:24.532Z,102100.60
2023-02-27T06:32:56.423Z,102110.00
2023-02-27T06:34:29.839Z,102105.60
2023-02-27T06:36:01.852Z,102105.60
2023-02-27T06:37:33.937Z,102104.20
2023-02-27T06:39:07.281Z,102102.60
2023-02-27T06:40:39.213Z,102103.40
2023-02-27T06:42:11.804Z,102103.00
2023-02-27T06:43:43.929Z,102100.20
2023-02-27T06:45:17.592Z,102105.20
2023-02-27T06:46:49.716Z,102102.20
2023-02-27T06:48:26.838Z,102103.20
2023-02-27T06:49:58.942Z,102101.00
2023-02-27T06:51:31.086Z,102098.40
2023-02-27T06:53:03.205Z,102104.60
2023-02-27T06:54:35.040Z,102106.20
2023-02-27T06:56:07.335Z,102102.00
2023-02-27T06:57:39.553Z,102105.20
2023-02-27T06:59:12.067Z,102106.20
2023-02-27T07:00:44.083Z,102107.00
2023-02-27T07:02:18.545Z,102106.20
2023-02-27T07:03:50.421Z,102106.20
2023-02-27T07:05:22.340Z,102112.20
2023-02-27T07:07:32.416Z,102116.40
2023-02-27T07:09:01.032Z,102113.60
2023-02-27T07:10:40.086Z,102119.60
2023-02-27T07:12:12.084Z,102123.80
2023-02-27T07:13:43.948Z,102126.60
2023-02-27T07:15:15.995Z,102125.80
2023-02-27T07:16:50.953Z,102130.40
2023-02-27T07:18:23.647Z,102134.40
2023-02-27T07:19:58.054Z,102135.20
2023-02-27T07:21:29.840Z,102131.00
2023-02-27T07:23:01.882Z,102126.40
2023-02-27T07:24:33.646Z,102129.20
2023-02-27T07:26:05.751Z,102123.60
2023-02-27T07:27:37.829Z,102121.20
2023-02-27T07:29:10.023Z,102136.60
2023-02-27T07:30:42.125Z,102141.00
2023-02-27T07:32:14.253Z,102140.60
2023-02-27T07:33:46.220Z,102151.80
2023-02-27T07:35:19.564Z,102148.60
2023-02-27T07:36:51.361Z,102149.40
2023-02-27T07:38:24.581Z,102148.40
2023-02-27T07:39:56.414Z,102149.80
2023-02-27T07:41:30.987Z,102154.00
2023-02-27T07:43:05.187Z,102156.20
2023-02-27T07:44:37.386Z,102154.40
2023-02-27T07:46:09.640Z,102155.80
2023-02-27T07:47:42.202Z,102154.60
2023-02-27T07:49:14.271Z,102151.00
2023-02-27T07:50:46.199Z,102150.00
2023-02-27T07:52:18.185Z,102156.60
2023-02-27T07:53:50.058Z,102151.00
2023-02-27T07:55:22.044Z,102150.00
2023-02-27T07:56:53.901Z,102153.80
2023-02-27T07:58:25.821Z,102152.40
2023-02-27T07:59:57.694Z,102160.60
2023-02-27T08:01:29.783Z,102162.80
2023-02-27T08:03:01.748Z,102157.20
2023-02-27T08:04:33.810Z,102160.20
2023-02-27T08:06:06.081Z,102160.00
2023-02-27T08:07:37.955Z,102165.00
2023-02-27T08:09:10.958Z,102166.40
2023-02-27T08:10:42.818Z,102167.00
2023-02-27T08:12:14.648Z,102171.40
2023-02-27T08:14:03.322Z,102173.40
2023-02-27T08:15:35.405Z,102169.80
2023-02-27T08:17:07.365Z,102162.40
2023-02-27T08:18:39.273Z,102162.00
2023-02-27T08:20:12.753Z,102163.80
2023-02-27T08:21:44.599Z,102161.80
2023-02-27T08:23:16.491Z,102166.80
2023-02-27T08:24:48.369Z,102171.80
2023-02-27T08:26:21.392Z,102169.00
2023-02-27T08:27:53.653Z,102167.00
2023-02-27T08:29:26.947Z,102172.80
2023-02-27T08:30:58.810Z,102172.60
2023-02-27T08:32:30.686Z,102170.00
2023-02-27T08:34:09.989Z,102171.00
2023-02-27T08:35:42.857Z,102166.00
2023-02-27T08:37:14.681Z,102172.00
2023-02-27T08:38:47.702Z,102173.60
2023-02-27T08:40:19.577Z,102175.60
2023-02-27T08:41:53.662Z,102172.80
2023-02-27T08:43:25.643Z,102177.40
2023-02-27T08:44:57.535Z,102174.00
2023-02-27T08:46:29.819Z,102173.20
2023-02-27T08:48:02.419Z,102175.00
2023-02-27T08:49:34.283Z,102175.40
2023-02-27T08:51:06.585Z,102173.40
2023-02-27T08:52:39.405Z,102172.00
2023-02-27T08:54:11.292Z,102175.00
2023-02-27T08:55:43.374Z,102175.40
2023-02-27T08:57:15.302Z,102179.40
2023-02-27T08:58:47.256Z,102177.80
2023-02-27T09:00:20.460Z,102174.20
2023-02-27T09:01:52.405Z,102180.40
2023-02-27T09:03:29.693Z,102174.20
2023-02-27T09:05:02.306Z,102177.40
2023-02-27T09:06:36.098Z,102172.00
2023-02-27T09:08:08.288Z,102172.40
2023-02-27T09:09:40.287Z,102172.40
2023-02-27T09:11:12.240Z,102167.80
2023-02-27T09:12:44.129Z,102172.20
2023-02-27T09:14:16.067Z,102175.00
2023-02-27T09:15:48.122Z,102176.60
2023-02-27T09:17:19.984Z,102174.60
2023-02-27T09:18:51.975Z,102171.80
2023-02-27T09:20:23.829Z,102171.60
2023-02-27T09:21:55.726Z,102174.80
2023-02-27T09:23:30.464Z,102174.00
2023-02-27T09:25:02.751Z,102173.40
2023-02-27T09:26:44.906Z,102171.20
2023-02-27T09:28:17.826Z,102175.00
2023-02-27T09:29:55.476Z,102174.00
2023-02-27T09:31:32.235Z,102175.60
2023-02-27T09:33:05.183Z,102167.40
2023-02-27T09:34:37.336Z,102175.40
2023-02-27T09:36:09.341Z,102170.40
2023-02-27T09:37:42.791Z,102170.80
2023-02-27T09:39:15.055Z,102167.40
2023-02-27T09:40:59.861Z,102165.60
2023-02-27T09:42:46.599Z,102164.60
2023-02-27T09:44:45.346Z,102167.40
2023-02-27T09:46:24.396Z,102164.80
2023-02-27T09:48:29.969Z,102161.20
2023-02-27T09:50:06.271Z,102163.60
2023-02-27T09:51:39.654Z,102165.40
2023-02-27T09:53:41.255Z,102166.40
2023-02-27T09:55:20.471Z,102168.80
2023-02-27T09:57:05.710Z,102163.20
2023-02-27T09:58:56.516Z,102159.80
2023-02-27T10:00:48.447Z,102158.40
2023-02-27T10:02:58.456Z,102167.20
2023-02-27T10:05:15.702Z,102161.20
2023-02-27T10:07:17.046Z,102163.60
2023-02-27T10:08:55.345Z,102165.20
2023-02-27T10:10:50.816Z,102164.00
2023-02-27T10:12:46.869Z,102164.40
2023-02-27T10:15:03.126Z,102160.40
2023-02-27T10:16:35.204Z,102172.60
2023-02-27T10:18:27.461Z,102175.00
2023-02-27T10:20:20.450Z,102162.40
2023-02-27T10:21:59.553Z,102161.00
2023-02-27T10:23:49.540Z,102167.80
2023-02-27T10:25:31.265Z,102157.60
2023-02-27T10:27:17.170Z,102162.00
2023-02-27T10:28:49.116Z,102157.60
2023-02-27T10:30:32.851Z,102158.60
2023-02-27T10:32:35.404Z,102158.00
2023-02-27T10:34:16.349Z,102155.40
2023-02-27T10:35:48.198Z,102158.60
2023-02-27T10:37:26.509Z,102161.00
2023-02-27T10:39:06.947Z,102162.20
2023-02-27T10:40:42.938Z,102160.80
2023-02-27T10:42:17.191Z,102158.60
2023-02-27T10:43:55.815Z,102160.40
2023-02-27T10:45:28.879Z,102164.80
2023-02-27T10:47:00.718Z,102157.80
2023-02-27T10:48:32.978Z,102158.20
2023-02-27T10:50:29.407Z,102159.20
2023-02-27T10:52:13.869Z,102154.60
2023-02-27T10:53:45.708Z,102166.00
2023-02-27T10:55:25.279Z,102162.60
2023-02-27T10:57:02.564Z,102161.60
2023-02-27T10:58:37.912Z,102166.00
2023-02-27T11:00:52.692Z,102166.60
2023-02-27T11:02:44.519Z,102166.60
2023-02-27T11:04:34.923Z,102167.80
2023-02-27T11:06:26.828Z,102165.40
2023-02-27T11:08:24.651Z,102166.60
2023-02-27T11:10:18.553Z,102166.00
2023-02-27T11:11:52.553Z,102162.00
2023-02-27T11:13:27.798Z,102161.80
2023-02-27T11:15:21.767Z,102155.00
2023-02-27T11:17:04.876Z,102155.00
2023-02-27T11:18:49.218Z,102152.20
2023-02-27T11:20:30.759Z,102151.20
2023-02-27T11:22:29.986Z,102157.40
2023-02-27T11:24:09.241Z,102144.80
2023-02-27T11:25:42.491Z,102143.40
2023-02-27T11:27:30.269Z,102141.60
2023-02-27T11:29:15.338Z,102145.00
2023-02-27T11:31:07.687Z,102140.80
2023-02-27T11:32:48.710Z,102135.40
2023-02-27T11:34:27.950Z,102128.60
2023-02-27T11:36:12.122Z,102130.00
2023-02-27T11:38:02.903Z,102121.80
2023-02-27T11:39:53.855Z,102126.60
2023-02-27T11:42:08.628Z,102127.40
2023-02-27T11:43:53.047Z,102128.60
2023-02-27T11:46:23.092Z,102126.00
2023-02-27T11:47:34.691Z,102125.40
2023-02-27T11:49:09.401Z,102123.20
2023-02-27T11:51:33.194Z,102127.80
2023-02-27T11:53:33.225Z,102118.60
2023-02-27T11:55:15.946Z,102128.40
2023-02-27T11:56:56.685Z,102118.40
2023-02-27T11:58:40.437Z,102112.40
2023-02-27T12:00:36.616Z,102116.80
2023-02-27T12:02:39.461Z,102112.00
2023-02-27T12:04:21.236Z,102099.00
2023-02-27T12:05:59.370Z,102102.00
2023-02-27T12:07:54.699Z,102102.20
2023-02-27T12:09:45.722Z,102106.60
2023-02-27T12:11:42.195Z,102103.80
2023-02-27T12:13:21.553Z,102106.80
2023-02-27T12:14:59.525Z,102110.80
2023-02-27T12:16:46.521Z,102122.60
2023-02-27T12:18:41.385Z,102125.40
2023-02-27T12:20:35.948Z,102113.60
2023-02-27T12:22:22.634Z,102108.00
2023-02-27T12:24:08.156Z,102116.00
2023-02-27T12:25:49.665Z,102115.60
2023-02-27T12:27:59.703Z,102126.00
2023-02-27T12:29:50.847Z,102127.00
2023-02-27T12:31:22.575Z,102111.20
2023-02-27T12:33:08.296Z,102114.20
2023-02-27T12:34:56.787Z,102116.00
2023-02-27T12:36:28.608Z,102113.20
2023-02-27T12:38:01.711Z,102116.40
2023-02-27T12:39:34.922Z,102115.60
2023-02-27T12:41:43.909Z,102114.80
2023-02-27T12:43:40.374Z,102113.60
2023-02-27T12:45:53.778Z,102106.80
2023-02-27T12:48:05.011Z,102114.00
2023-02-27T12:50:02.716Z,102115.00
2023-02-27T12:51:50.351Z,102114.00
2023-02-27T12:53:59.033Z,102117.20
2023-02-27T12:55:42.511Z,102116.20
2023-02-27T12:57:52.421Z,102111.80
2023-02-27T13:00:14.939Z,102113.00
2023-02-27T13:01:53.008Z,102105.60
2023-02-27T13:03:35.470Z,102107.60
2023-02-27T13:05:45.106Z,102109.20
2023-02-27T13:07:45.083Z,102106.40
2023-02-27T13:09:29.759Z,102105.60
2023-02-27T13:11:23.370Z,102105.20
2023-02-27T13:13:09.718Z,102095.80
2023-02-27T13:14:47.785Z,102097.20
2023-02-27T13:16:44.897Z,102100.80
2023-02-27T13:18:42.425Z,102099.60
2023-02-27T13:20:40.345Z,102104.40
2023-02-27T13:22:16.825Z,102101.40
2023-02-27T13:24:02.058Z,102092.60
2023-02-27T13:25:38.803Z,102094.20
2023-02-27T13:27:21.520Z,102093.40
2023-02-27T13:28:54.747Z,102095.40
2023-02-27T13:30:56.681Z,102096.60
2023-02-27T13:32:44.477Z,102094.20
2023-02-27T13:35:00.340Z,102091.00
2023-02-27T13:36:52.615Z,102088.20
2023-02-27T13:38:55.716Z,102082.80
2023-02-27T13:40:39.820Z,102081.20
2023-02-27T13:42:27.256Z,102084.80
2023-02-27T13:44:20.030Z,102081.00
2023-02-27T13:45:58.435Z,102078.00
2023-02-27T13:47:30.531Z,102081.00
2023-02-27T13:49:05.120Z,102087.80
2023-02-27T13:50:50.395Z,102090.40
2023-02-27T13:52:32.547Z,102095.80
2023-02-27T13:54:13.285Z,102089.60
2023-02-27T13:55:45.800Z,102097.60
2023-02-27T13:57:23.770Z,102096.00
2023-02-27T13:58:57.884Z,102099.20
2023-02-27T14:00:34.412Z,102091.40
2023-02-27T14:02:12.239Z,102092.80
2023-02-27T14:03:58.288Z,102092.60
2023-02-27T14:05:36.705Z,102086.40
2023-02-27T14:07:18.790Z,102077.20
2023-02-27T14:09:05.298Z,102080.40
2023-02-27T14:11:30.725Z,102078.60
2023-02-27T14:13:03.810Z,102083.40
2023-02-27T14:14:45.880Z,102081.60
2023-02-27T14:16:39.998Z,102079.80
2023-02-27T14:18:54.879Z,102081.20
2023-02-27T14:20:30.536Z,102075.40
2023-02-27T14:22:38.117Z,102072.40
2023-02-27T14:24:15.211Z,102077.20
2023-02-27T14:25:49.952Z,102072.20
2023-02-27T14:27:32.033Z,102070.40
2023-02-27T14:29:04.638Z,102067.80
2023-02-27T14:30:45.589Z,102071.40
2023-02-27T14:32:41.042Z,102072.20
2023-02-27T14:34:20.891Z,102077.60
2023-02-27T14:36:06.619Z,102069.60
2023-02-27T14:37:39.081Z,102074.20
2023-02-27T14:39:35.629Z,102068.40
2023-02-27T14:41:59.907Z,102072.40
2023-02-27T14:43:46.542Z,102063.40
2023-02-27T14:45:24.548Z,102072.00
2023-02-27T14:46:59.682Z,102074.60
2023-02-27T14:48:32.652Z,102075.00
2023-02-27T14:50:20.734Z,102069.00
2023-02-27T14:51:53.745Z,102068.40
2023-02-27T14:53:27.786Z,102066.60
2023-02-27T14:55:28.670Z,102067.60
2023-02-27T14:57:05.224Z,102063.80
2023-02-27T14:58:36.982Z,102063.40
2023-02-27T15:01:03.482Z,102066.60
2023-02-27T15:02:37.657Z,102065.60
2023-02-27T15:04:20.442Z,102067.60
2023-02-27T15:05:57.512Z,102067.20
2023-02-27T15:07:33.387Z,102073.20
2023-02-27T15:09:07.816Z,102069.40
2023-02-27T15:10:43.327Z,102069.00
2023-02-27T15:12:21.756Z,102069.20
2023-02-27T15:14:06.264Z,102067.20
2023-02-27T15:15:38.366Z,102068.20
2023-02-27T15:17:26.350Z,102067.60
2023-02-27T15:19:04.164Z,102067.60
2023-02-27T15:20:35.981Z,102063.40
2023-02-27T15:22:36.129Z,102065.40
2023-02-27T15:24:24.266Z,102068.20
2023-02-27T15:25:59.168Z,102059.80
2023-02-27T15:27:31.063Z,102060.20
2023-02-27T15:29:06.140Z,102061.60
2023-02-27T15:30:38.011Z,102060.40
2023-02-27T15:32:41.304Z,102062.20
2023-02-27T15:34:15.386Z,102074.60
2023-02-27T15:35:47.670Z,102072.40
2023-02-27T15:37:27.688Z,102071.60
2023-02-27T15:39:23.760Z,102073.60
2023-02-27T15:40:58.808Z,102079.60
2023-02-27T15:42:36.473Z,102082.20
2023-02-27T15:44:10.694Z,102086.20
2023-02-27T15:45:43.342Z,102084.60
2023-02-27T15:47:28.510Z,102085.20
2023-02-27T15:49:00.454Z,102085.20
2023-02-27T15:50:57.812Z,102082.40
2023-02-27T15:52:41.621Z,102087.20
2023-02-27T15:54:14.004Z,102089.00
2023-02-27T15:56:12.089Z,102094.00
2023-02-27T15:58:00.751Z,102094.80
2023-02-27T15:59:41.228Z,102096.80
2023-02-27T16:01:22.261Z,102092.00
2023-02-27T16:02:59.370Z,102090.60
2023-02-27T16:04:33.301Z,102085.00
2023-02-27T16:06:16.422Z,102088.00
2023-02-27T16:07:50.214Z,102092.20
2023-02-27T16:09:36.597Z,102094.00
2023-02-27T16:11:29.453Z,102095.60
2023-02-27T16:13:40.125Z,102093.60
2023-02-27T16:15:20.743Z,102097.40
2023-02-27T16:16:55.994Z,102096.40
2023-02-27T16:18:35.357Z,102100.00
2023-02-27T16:20:39.489Z,102102.20
2023-02-27T16:22:18.614Z,102096.00
2023-02-27T16:23:51.716Z,102100.80
2023-02-27T16:25:24.190Z,102090.80
2023-02-27T16:26:56.199Z,102102.40
2023-02-27T16:29:06.190Z,102111.80
2023-02-27T16:30:38.071Z,102113.00
2023-02-27T16:32:24.679Z,102116.20
2023-02-27T16:34:13.941Z,102114.80
2023-02-27T16:35:48.152Z,102116.40
2023-02-27T16:37:27.142Z,102113.60
2023-02-27T16:38:59.135Z,102116.80
2023-02-27T16:40:31.211Z,102115.80
2023-02-27T16:42:03.164Z,102120.00
2023-02-27T16:43:34.910Z,102118.60
2023-02-27T16:45:18.496Z,102112.40
2023-02-27T16:46:53.075Z,102117.20
2023-02-27T16:48:25.363Z,102118.80
2023-02-27T16:49:58.207Z,102113.20
2023-02-27T16:51:34.702Z,102118.60
2023-02-27T16:53:08.151Z,102121.20
2023-02-27T16:54:39.963Z,102119.80
2023-02-27T16:56:12.647Z,102119.60
2023-02-27T16:57:44.507Z,102122.00
2023-02-27T16:59:30.914Z,102123.40
2023-02-27T17:01:02.839Z,102127.00
2023-02-27T17:02:35.044Z,102120.80
2023-02-27T17:04:19.692Z,102119.40
2023-02-27T17:05:57.823Z,102124.00
2023-02-27T17:07:30.514Z,102126.40
2023-02-27T17:09:02.481Z,102122.60
2023-02-27T17:10:34.467Z,102127.00
2023-02-27T17:12:06.378Z,102125.40
2023-02-27T17:13:38.307Z,102131.40
2023-02-27T17:15:10.877Z,102134.00
2023-02-27T17:16:42.902Z,102132.60
2023-02-27T17:18:15.002Z,102132.40
2023-02-27T17:19:46.960Z,102133.40
2023-02-27T17:21:18.808Z,102136.40
2023-02-27T17:22:50.684Z,102134.60
2023-02-27T17:24:22.531Z,102136.80
2023-02-27T17:25:55.831Z,102134.60
2023-02-27T17:27:27.754Z,102138.60
2023-02-27T17:28:59.959Z,102140.20
2023-02-27T17:30:31.877Z,102144.00
2023-02-27T17:32:04.079Z,102140.60
2023-02-27T17:33:36.047Z,102144.80
2023-02-27T17:35:08.980Z,102143.20
2023-02-27T17:36:40.878Z,102145.20
2023-02-27T17:38:12.674Z,102143.20
2023-02-27T17:39:44.570Z,102145.20
2023-02-27T17:41:16.607Z,102147.80
2023-02-27T17:42:48.454Z,102148.00
2023-02-27T17:44:20.279Z,102152.00
2023-02-27T17:45:52.125Z,102148.80
2023-02-27T17:47:24.116Z,102152.40
2023-02-27T17:49:00.520Z,102152.80
2023-02-27T17:50:32.505Z,102154.40
2023-02-27T17:52:07.061Z,102160.20
2023-02-27T17:53:40.137Z,102159.20
2023-02-27T17:55:14.415Z,102159.00
2023-02-27T17:56:46.299Z,102161.80
2023-02-27T17:58:18.820Z,102160.80
2023-02-27T17:59:50.534Z,102161.00
2023-02-27T18:01:25.925Z,102166.20
2023-02-27T18:02:58.457Z,102164.60
2023-02-27T18:04:30.287Z,102161.80
2023-02-27T18:06:02.676Z,102166.00
2023-02-27T18:07:34.725Z,102169.00
2023-02-27T18:09:06.640Z,102167.20
2023-02-27T18:10:39.253Z,102164.40
2023-02-27T18:12:11.102Z,102168.80
2023-02-27T18:13:43.553Z,102167.60
2023-02-27T18:15:18.819Z,102164.40
2023-02-27T18:16:51.980Z,102173.20
2023-02-27T18:18:24.306Z,102173.60
2023-02-27T18:19:58.143Z,102171.40
2023-02-27T18:21:29.960Z,102175.00
2023-02-27T18:23:01.852Z,102180.40
2023-02-27T18:24:33.645Z,102177.00
2023-02-27T18:26:05.823Z,102179.40
2023-02-27T18:27:37.887Z,102177.20
2023-02-27T18:29:11.984Z,102176.80
2023-02-27T18:30:43.811Z,102178.80
2023-02-27T18:32:16.275Z,102176.20
2023-02-27T18:33:48.384Z,102174.60
2023-02-27T18:35:20.731Z,102176.80
2023-02-27T18:36:52.781Z,102177.20
2023-02-27T18:38:24.543Z,102177.60
2023-02-27T18:39:56.325Z,102184.00
2023-02-27T18:41:29.266Z,102185.80
2023-02-27T18:43:01.091Z,102184.40
2023-02-27T18:44:33.024Z,102181.60
2023-02-27T18:46:05.273Z,102183.80
2023-02-27T18:47:37.095Z,102183.80
2023-02-27T18:49:09.836Z,102190.00
2023-02-27T18:50:41.701Z,102187.80
2023-02-27T18:52:13.662Z,102187.80
2023-02-27T18:53:48.766Z,102188.00
2023-02-27T18:55:20.918Z,102189.40
2023-02-27T18:56:52.812Z,102185.60
2023-02-27T18:58:24.648Z,102185.00
2023-02-27T18:59:56.676Z,102184.60
2023-02-27T19:01:32.488Z,102186.00
2023-02-27T19:03:05.680Z,102184.80
2023-02-27T19:04:37.614Z,102182.20
2023-02-27T19:06:11.141Z,102182.80
2023-02-27T19:07:43.605Z,102183.80
2023-02-27T19:09:20.392Z,102184.20
2023-02-27T19:10:53.532Z,102180.80